sensor_id;sensor_type;location;lat;lon;timestamp;P1;durP1;ratioP1;P2;durP2;ratioP2
3016;SDS011;1518;52.408;13.060;2023-01-20T00:02:06;3.13;;;2.78;;
3016;SDS011;1518;52.408;13.060;2023-01-20T00:04:54;2.30;;;2.10;;
3016;SDS011;1518;52.408;13.060;2023-01-20T00:07:42;2.63;;;2.42;;
3016;SDS011;1518;52.408;13.060;2023-01-20T00:10:30;3.40;;;3.10;;
3016;SDS011;1518;52.408;13.060;2023-01-20T00:13:20;4.25;;;2.88;;
3016;SDS011;1518;52.408;13.060;2023-01-20T00:16:09;2.15;;;2.05;;
3016;SDS011;1518;52.408;13.060;2023-01-20T00:18:57;5.32;;;2.63;;
3016;SDS011;1518;52.408;13.060;2023-01-20T00:21:46;2.97;;;2.67;;
3016;SDS011;1518;52.408;13.060;2023-01-20T00:24:34;3.33;;;2.22;;
3016;SDS011;1518;52.408;13.060;2023-01-20T00:27:22;3.22;;;2.30;;
3016;SDS011;1518;52.408;13.060;2023-01-20T00:30:12;2.75;;;2.55;;
3016;SDS011;1518;52.408;13.060;2023-01-20T00:33:00;2.58;;;2.33;;
3016;SDS011;1518;52.408;13.060;2023-01-20T00:35:48;2.70;;;2.22;;
3016;SDS011;1518;52.408;13.060;2023-01-20T00:38:36;2.85;;;2.58;;
3016;SDS011;1518;52.408;13.060;2023-01-20T00:41:24;2.58;;;2.17;;
3016;SDS011;1518;52.408;13.060;2023-01-20T00:44:12;1.98;;;1.85;;
3016;SDS011;1518;52.408;13.060;2023-01-20T00:47:02;2.38;;;2.28;;
3016;SDS011;1518;52.408;13.060;2023-01-20T00:49:50;2.33;;;1.88;;
3016;SDS011;1518;52.408;13.060;2023-01-20T00:52:38;2.47;;;2.05;;
3016;SDS011;1518;52.408;13.060;2023-01-20T00:55:26;3.83;;;2.80;;
3016;SDS011;1518;52.408;13.060;2023-01-20T00:58:14;9.35;;;2.80;;
3016;SDS011;1518;52.408;13.060;2023-01-20T01:01:02;5.40;;;4.35;;
3016;SDS011;1518;52.408;13.060;2023-01-20T01:03:52;2.70;;;2.50;;
3016;SDS011;1518;52.408;13.060;2023-01-20T01:06:40;4.95;;;2.58;;
3016;SDS011;1518;52.408;13.060;2023-01-20T01:09:29;2.67;;;2.47;;
3016;SDS011;1518;52.408;13.060;2023-01-20T01:12:17;4.07;;;3.15;;
3016;SDS011;1518;52.408;13.060;2023-01-20T01:15:06;2.33;;;2.03;;
3016;SDS011;1518;52.408;13.060;2023-01-20T01:17:55;2.88;;;2.47;;
3016;SDS011;1518;52.408;13.060;2023-01-20T01:20:45;2.30;;;2.10;;
3016;SDS011;1518;52.408;13.060;2023-01-20T01:23:33;4.25;;;2.25;;
3016;SDS011;1518;52.408;13.060;2023-01-20T01:26:21;2.38;;;2.17;;
3016;SDS011;1518;52.408;13.060;2023-01-20T01:29:09;2.60;;;2.40;;
3016;SDS011;1518;52.408;13.060;2023-01-20T01:31:57;4.45;;;2.20;;
3016;SDS011;1518;52.408;13.060;2023-01-20T01:34:45;2.47;;;2.10;;
3016;SDS011;1518;52.408;13.060;2023-01-20T01:37:35;2.10;;;2.00;;
3016;SDS011;1518;52.408;13.060;2023-01-20T01:40:23;2.63;;;2.30;;
3016;SDS011;1518;52.408;13.060;2023-01-20T01:43:13;2.28;;;2.05;;
3016;SDS011;1518;52.408;13.060;2023-01-20T01:46:08;2.70;;;2.47;;
3016;SDS011;1518;52.408;13.060;2023-01-20T01:48:57;3.05;;;2.30;;
3016;SDS011;1518;52.408;13.060;2023-01-20T01:51:49;2.15;;;1.95;;
3016;SDS011;1518;52.408;13.060;2023-01-20T01:54:41;2.33;;;2.13;;
3016;SDS011;1518;52.408;13.060;2023-01-20T01:57:31;2.20;;;1.90;;
3016;SDS011;1518;52.408;13.060;2023-01-20T02:00:19;3.67;;;2.90;;
3016;SDS011;1518;52.408;13.060;2023-01-20T02:03:08;5.18;;;2.50;;
3016;SDS011;1518;52.408;13.060;2023-01-20T02:05:57;2.83;;;2.40;;
3016;SDS011;1518;52.408;13.060;2023-01-20T02:08:45;3.50;;;2.90;;
3016;SDS011;1518;52.408;13.060;2023-01-20T02:11:36;2.50;;;2.08;;
3016;SDS011;1518;52.408;13.060;2023-01-20T02:14:28;3.63;;;2.65;;
3016;SDS011;1518;52.408;13.060;2023-01-20T02:17:20;4.00;;;2.38;;
3016;SDS011;1518;52.408;13.060;2023-01-20T02:24:00;6.28;;;4.32;;
3016;SDS011;1518;52.408;13.060;2023-01-20T02:27:06;6.55;;;3.80;;
3016;SDS011;1518;52.408;13.060;2023-01-20T02:33:23;2.15;;;1.88;;
3016;SDS011;1518;52.408;13.060;2023-01-20T02:36:18;3.50;;;2.33;;
3016;SDS011;1518;52.408;13.060;2023-01-20T02:39:14;3.97;;;3.10;;
3016;SDS011;1518;52.408;13.060;2023-01-20T02:42:13;2.53;;;2.33;;
3016;SDS011;1518;52.408;13.060;2023-01-20T02:45:10;3.53;;;2.70;;
3016;SDS011;1518;52.408;13.060;2023-01-20T02:48:04;2.58;;;2.38;;
3016;SDS011;1518;52.408;13.060;2023-01-20T02:51:01;3.17;;;2.85;;
3016;SDS011;1518;52.408;13.060;2023-01-20T02:53:53;3.05;;;2.53;;
3016;SDS011;1518;52.408;13.060;2023-01-20T02:56:45;3.45;;;2.55;;
3016;SDS011;1518;52.408;13.060;2023-01-20T02:59:35;2.42;;;1.98;;
3016;SDS011;1518;52.408;13.060;2023-01-20T03:02:28;3.60;;;3.00;;
3016;SDS011;1518;52.408;13.060;2023-01-20T03:05:21;3.97;;;2.53;;
3016;SDS011;1518;52.408;13.060;2023-01-20T03:08:16;4.28;;;2.28;;
3016;SDS011;1518;52.408;13.060;2023-01-20T03:11:07;4.22;;;2.63;;
3016;SDS011;1518;52.408;13.060;2023-01-20T03:13:57;2.40;;;2.20;;
3016;SDS011;1518;52.408;13.060;2023-01-20T03:16:50;3.45;;;2.30;;
3016;SDS011;1518;52.408;13.060;2023-01-20T03:19:38;2.50;;;2.30;;
3016;SDS011;1518;52.408;13.060;2023-01-20T03:22:27;3.78;;;2.58;;
3016;SDS011;1518;52.408;13.060;2023-01-20T03:25:16;3.15;;;2.10;;
3016;SDS011;1518;52.408;13.060;2023-01-20T03:28:06;3.85;;;2.67;;
3016;SDS011;1518;52.408;13.060;2023-01-20T03:30:54;4.32;;;2.60;;
3016;SDS011;1518;52.408;13.060;2023-01-20T03:33:44;3.88;;;2.70;;
3016;SDS011;1518;52.408;13.060;2023-01-20T03:36:34;2.65;;;2.03;;
3016;SDS011;1518;52.408;13.060;2023-01-20T03:39:23;5.38;;;2.88;;
3016;SDS011;1518;52.408;13.060;2023-01-20T03:42:13;3.53;;;1.98;;
3016;SDS011;1518;52.408;13.060;2023-01-20T03:45:09;3.20;;;2.83;;
3016;SDS011;1518;52.408;13.060;2023-01-20T03:48:05;3.50;;;2.85;;
3016;SDS011;1518;52.408;13.060;2023-01-20T03:51:00;2.75;;;2.55;;
3016;SDS011;1518;52.408;13.060;2023-01-20T03:53:58;4.47;;;3.17;;
3016;SDS011;1518;52.408;13.060;2023-01-20T03:56:50;5.72;;;2.95;;
3016;SDS011;1518;52.408;13.060;2023-01-20T03:59:44;4.90;;;3.25;;
3016;SDS011;1518;52.408;13.060;2023-01-20T04:02:35;2.83;;;2.45;;
3016;SDS011;1518;52.408;13.060;2023-01-20T04:05:24;5.35;;;2.40;;
3016;SDS011;1518;52.408;13.060;2023-01-20T04:08:13;4.35;;;2.80;;
3016;SDS011;1518;52.408;13.060;2023-01-20T04:11:04;4.20;;;2.28;;
3016;SDS011;1518;52.408;13.060;2023-01-20T04:13:54;4.80;;;2.85;;
3016;SDS011;1518;52.408;13.060;2023-01-20T04:16:43;3.38;;;2.58;;
3016;SDS011;1518;52.408;13.060;2023-01-20T04:19:37;3.45;;;2.78;;
3016;SDS011;1518;52.408;13.060;2023-01-20T04:22:26;3.72;;;2.50;;
3016;SDS011;1518;52.408;13.060;2023-01-20T04:25:21;3.25;;;2.85;;
3016;SDS011;1518;52.408;13.060;2023-01-20T04:28:12;2.70;;;2.50;;
3016;SDS011;1518;52.408;13.060;2023-01-20T04:31:00;2.70;;;2.50;;
3016;SDS011;1518;52.408;13.060;2023-01-20T04:33:49;4.40;;;2.83;;
3016;SDS011;1518;52.408;13.060;2023-01-20T04:36:37;3.03;;;2.60;;
3016;SDS011;1518;52.408;13.060;2023-01-20T04:39:25;2.70;;;2.50;;
3016;SDS011;1518;52.408;13.060;2023-01-20T04:42:13;3.55;;;2.40;;
3016;SDS011;1518;52.408;13.060;2023-01-20T04:45:01;3.25;;;2.60;;
3016;SDS011;1518;52.408;13.060;2023-01-20T04:47:50;3.42;;;2.80;;
3016;SDS011;1518;52.408;13.060;2023-01-20T04:50:40;2.63;;;2.30;;
3016;SDS011;1518;52.408;13.060;2023-01-20T04:53:28;2.25;;;2.05;;
3016;SDS011;1518;52.408;13.060;2023-01-20T04:56:16;4.88;;;3.28;;
3016;SDS011;1518;52.408;13.060;2023-01-20T04:59:04;2.80;;;2.60;;
3016;SDS011;1518;52.408;13.060;2023-01-20T05:01:52;3.03;;;2.22;;
3016;SDS011;1518;52.408;13.060;2023-01-20T05:04:40;4.18;;;3.15;;
3016;SDS011;1518;52.408;13.060;2023-01-20T05:07:30;3.20;;;2.90;;
3016;SDS011;1518;52.408;13.060;2023-01-20T05:10:18;10.95;;;5.55;;
3016;SDS011;1518;52.408;13.060;2023-01-20T05:13:06;3.95;;;3.30;;
3016;SDS011;1518;52.408;13.060;2023-01-20T05:15:54;5.18;;;3.70;;
3016;SDS011;1518;52.408;13.060;2023-01-20T05:18:42;6.30;;;4.75;;
3016;SDS011;1518;52.408;13.060;2023-01-20T05:21:30;7.00;;;5.18;;
3016;SDS011;1518;52.408;13.060;2023-01-20T05:24:20;5.75;;;4.68;;
3016;SDS011;1518;52.408;13.060;2023-01-20T05:27:09;5.32;;;3.53;;
3016;SDS011;1518;52.408;13.060;2023-01-20T05:29:57;5.03;;;4.47;;
3016;SDS011;1518;52.408;13.060;2023-01-20T05:32:45;3.72;;;3.03;;
3016;SDS011;1518;52.408;13.060;2023-01-20T05:35:36;4.85;;;4.00;;
3016;SDS011;1518;52.408;13.060;2023-01-20T05:38:24;6.40;;;2.88;;
3016;SDS011;1518;52.408;13.060;2023-01-20T05:41:14;4.03;;;3.63;;
3016;SDS011;1518;52.408;13.060;2023-01-20T05:44:02;5.80;;;3.78;;
3016;SDS011;1518;52.408;13.060;2023-01-20T05:46:50;4.35;;;3.38;;
3016;SDS011;1518;52.408;13.060;2023-01-20T05:49:39;6.05;;;4.18;;
3016;SDS011;1518;52.408;13.060;2023-01-20T05:52:27;3.28;;;2.95;;
3016;SDS011;1518;52.408;13.060;2023-01-20T05:55:15;5.85;;;3.95;;
3016;SDS011;1518;52.408;13.060;2023-01-20T05:58:05;4.90;;;3.40;;
3016;SDS011;1518;52.408;13.060;2023-01-20T06:00:53;5.43;;;4.28;;
3016;SDS011;1518;52.408;13.060;2023-01-20T06:03:41;4.07;;;3.67;;
3016;SDS011;1518;52.408;13.060;2023-01-20T06:06:29;5.47;;;3.50;;
3016;SDS011;1518;52.408;13.060;2023-01-20T06:09:17;5.75;;;4.35;;
3016;SDS011;1518;52.408;13.060;2023-01-20T06:12:06;7.32;;;3.65;;
3016;SDS011;1518;52.408;13.060;2023-01-20T06:14:56;5.13;;;4.00;;
3016;SDS011;1518;52.408;13.060;2023-01-20T06:17:44;6.72;;;3.83;;
3016;SDS011;1518;52.408;13.060;2023-01-20T06:20:32;5.88;;;3.63;;
3016;SDS011;1518;52.408;13.060;2023-01-20T06:23:20;6.15;;;4.03;;
3016;SDS011;1518;52.408;13.060;2023-01-20T06:26:09;4.63;;;3.78;;
3016;SDS011;1518;52.408;13.060;2023-01-20T06:28:58;6.53;;;4.22;;
3016;SDS011;1518;52.408;13.060;2023-01-20T06:31:48;6.32;;;4.57;;
3016;SDS011;1518;52.408;13.060;2023-01-20T06:34:36;11.93;;;7.28;;
3016;SDS011;1518;52.408;13.060;2023-01-20T06:37:24;6.68;;;4.45;;
3016;SDS011;1518;52.408;13.060;2023-01-20T06:40:12;6.38;;;4.03;;
3016;SDS011;1518;52.408;13.060;2023-01-20T06:43:01;5.93;;;3.70;;
3016;SDS011;1518;52.408;13.060;2023-01-20T06:45:49;8.70;;;4.05;;
3016;SDS011;1518;52.408;13.060;2023-01-20T06:48:38;3.90;;;2.92;;
3016;SDS011;1518;52.408;13.060;2023-01-20T06:51:27;3.92;;;3.53;;
3016;SDS011;1518;52.408;13.060;2023-01-20T06:54:16;7.07;;;4.07;;
3016;SDS011;1518;52.408;13.060;2023-01-20T06:57:04;7.05;;;4.38;;
3016;SDS011;1518;52.408;13.060;2023-01-20T06:59:52;4.30;;;3.40;;
3016;SDS011;1518;52.408;13.060;2023-01-20T07:02:40;7.43;;;4.68;;
3016;SDS011;1518;52.408;13.060;2023-01-20T07:05:30;7.80;;;4.40;;
3016;SDS011;1518;52.408;13.060;2023-01-20T07:08:18;7.40;;;4.05;;
3016;SDS011;1518;52.408;13.060;2023-01-20T07:11:06;11.55;;;3.65;;
3016;SDS011;1518;52.408;13.060;2023-01-20T07:13:54;6.57;;;4.45;;
3016;SDS011;1518;52.408;13.060;2023-01-20T07:16:42;10.70;;;4.18;;
3016;SDS011;1518;52.408;13.060;2023-01-20T07:19:30;11.23;;;4.65;;
3016;SDS011;1518;52.408;13.060;2023-01-20T07:22:20;9.15;;;4.40;;
3016;SDS011;1518;52.408;13.060;2023-01-20T07:25:08;10.02;;;4.78;;
3016;SDS011;1518;52.408;13.060;2023-01-20T07:27:56;10.48;;;4.35;;
3016;SDS011;1518;52.408;13.060;2023-01-20T07:30:44;7.20;;;4.40;;
3016;SDS011;1518;52.408;13.060;2023-01-20T07:33:33;5.88;;;4.38;;
3016;SDS011;1518;52.408;13.060;2023-01-20T07:36:22;9.18;;;5.10;;
3016;SDS011;1518;52.408;13.060;2023-01-20T07:39:12;8.13;;;4.93;;
3016;SDS011;1518;52.408;13.060;2023-01-20T07:42:00;13.15;;;5.93;;
3016;SDS011;1518;52.408;13.060;2023-01-20T07:44:49;6.88;;;4.75;;
3016;SDS011;1518;52.408;13.060;2023-01-20T07:47:37;14.30;;;5.70;;
3016;SDS011;1518;52.408;13.060;2023-01-20T07:50:25;10.30;;;5.22;;
3016;SDS011;1518;52.408;13.060;2023-01-20T07:53:13;10.45;;;5.50;;
3016;SDS011;1518;52.408;13.060;2023-01-20T07:56:03;13.90;;;5.82;;
3016;SDS011;1518;52.408;13.060;2023-01-20T07:58:52;11.05;;;6.55;;
3016;SDS011;1518;52.408;13.060;2023-01-20T08:01:41;12.50;;;4.60;;
3016;SDS011;1518;52.408;13.060;2023-01-20T08:04:29;10.50;;;5.15;;
3016;SDS011;1518;52.408;13.060;2023-01-20T08:07:19;5.85;;;5.22;;
3016;SDS011;1518;52.408;13.060;2023-01-20T08:10:07;14.27;;;5.43;;
3016;SDS011;1518;52.408;13.060;2023-01-20T08:12:57;5.78;;;4.40;;
3016;SDS011;1518;52.408;13.060;2023-01-20T08:15:45;7.47;;;4.05;;
3016;SDS011;1518;52.408;13.060;2023-01-20T08:18:34;10.48;;;4.60;;
3016;SDS011;1518;52.408;13.060;2023-01-20T08:21:23;11.35;;;4.20;;
3016;SDS011;1518;52.408;13.060;2023-01-20T08:24:12;11.75;;;4.97;;
3016;SDS011;1518;52.408;13.060;2023-01-20T08:27:00;13.63;;;4.90;;
3016;SDS011;1518;52.408;13.060;2023-01-20T08:29:49;9.00;;;4.10;;
3016;SDS011;1518;52.408;13.060;2023-01-20T08:32:40;11.13;;;4.85;;
3016;SDS011;1518;52.408;13.060;2023-01-20T08:35:28;12.05;;;5.35;;
3016;SDS011;1518;52.408;13.060;2023-01-20T08:38:16;9.43;;;5.60;;
3016;SDS011;1518;52.408;13.060;2023-01-20T08:41:07;10.25;;;4.88;;
3016;SDS011;1518;52.408;13.060;2023-01-20T08:43:56;7.13;;;4.85;;
3016;SDS011;1518;52.408;13.060;2023-01-20T08:46:46;7.53;;;4.38;;
3016;SDS011;1518;52.408;13.060;2023-01-20T08:49:38;10.93;;;4.60;;
3016;SDS011;1518;52.408;13.060;2023-01-20T08:52:26;14.45;;;4.78;;
3016;SDS011;1518;52.408;13.060;2023-01-20T08:55:14;15.10;;;4.85;;
3016;SDS011;1518;52.408;13.060;2023-01-20T08:58:02;10.52;;;5.13;;
3016;SDS011;1518;52.408;13.060;2023-01-20T09:00:51;14.15;;;5.00;;
3016;SDS011;1518;52.408;13.060;2023-01-20T09:03:40;8.52;;;4.90;;
3016;SDS011;1518;52.408;13.060;2023-01-20T09:06:45;14.90;;;5.43;;
3016;SDS011;1518;52.408;13.060;2023-01-20T09:09:35;9.25;;;4.57;;
3016;SDS011;1518;52.408;13.060;2023-01-20T09:12:23;15.13;;;4.60;;
3016;SDS011;1518;52.408;13.060;2023-01-20T09:15:11;9.00;;;5.57;;
3016;SDS011;1518;52.408;13.060;2023-01-20T09:18:00;15.63;;;6.13;;
3016;SDS011;1518;52.408;13.060;2023-01-20T09:20:49;16.10;;;5.82;;
3016;SDS011;1518;52.408;13.060;2023-01-20T09:23:38;14.35;;;4.75;;
3016;SDS011;1518;52.408;13.060;2023-01-20T09:26:28;10.10;;;4.72;;
3016;SDS011;1518;52.408;13.060;2023-01-20T09:29:23;9.13;;;5.32;;
3016;SDS011;1518;52.408;13.060;2023-01-20T09:32:12;11.25;;;6.00;;
3016;SDS011;1518;52.408;13.060;2023-01-20T09:35:01;10.05;;;5.05;;
3016;SDS011;1518;52.408;13.060;2023-01-20T09:37:50;9.88;;;5.43;;
3016;SDS011;1518;52.408;13.060;2023-01-20T09:40:58;8.98;;;4.40;;
3016;SDS011;1518;52.408;13.060;2023-01-20T09:44:18;8.57;;;4.43;;
3016;SDS011;1518;52.408;13.060;2023-01-20T09:47:22;6.93;;;4.38;;
3016;SDS011;1518;52.408;13.060;2023-01-20T09:50:19;6.97;;;4.93;;
3016;SDS011;1518;52.408;13.060;2023-01-20T09:53:43;9.18;;;4.35;;
3016;SDS011;1518;52.408;13.060;2023-01-20T09:56:39;8.98;;;4.40;;
3016;SDS011;1518;52.408;13.060;2023-01-20T09:59:33;7.90;;;4.38;;
3016;SDS011;1518;52.408;13.060;2023-01-20T10:02:25;6.53;;;4.45;;
3016;SDS011;1518;52.408;13.060;2023-01-20T10:05:18;5.70;;;3.95;;
3016;SDS011;1518;52.408;13.060;2023-01-20T10:08:11;9.65;;;4.57;;
3016;SDS011;1518;52.408;13.060;2023-01-20T10:11:05;7.35;;;4.15;;
3016;SDS011;1518;52.408;13.060;2023-01-20T10:13:58;13.10;;;3.80;;
3016;SDS011;1518;52.408;13.060;2023-01-20T10:16:53;10.77;;;4.97;;
3016;SDS011;1518;52.408;13.060;2023-01-20T10:19:44;59.28;;;12.60;;
3016;SDS011;1518;52.408;13.060;2023-01-20T10:22:39;76.97;;;14.77;;
3016;SDS011;1518;52.408;13.060;2023-01-20T10:25:33;38.25;;;9.60;;
3016;SDS011;1518;52.408;13.060;2023-01-20T10:28:28;24.67;;;6.97;;
3016;SDS011;1518;52.408;13.060;2023-01-20T10:31:20;17.73;;;6.10;;
3016;SDS011;1518;52.408;13.060;2023-01-20T10:34:13;46.72;;;8.63;;
3016;SDS011;1518;52.408;13.060;2023-01-20T10:37:06;50.90;;;10.40;;
3016;SDS011;1518;52.408;13.060;2023-01-20T10:39:57;49.70;;;9.82;;
3016;SDS011;1518;52.408;13.060;2023-01-20T10:43:05;71.10;;;13.25;;
3016;SDS011;1518;52.408;13.060;2023-01-20T10:46:04;63.08;;;12.35;;
3016;SDS011;1518;52.408;13.060;2023-01-20T10:49:10;45.65;;;8.90;;
3016;SDS011;1518;52.408;13.060;2023-01-20T10:52:23;25.45;;;7.32;;
3016;SDS011;1518;52.408;13.060;2023-01-20T10:55:20;20.10;;;7.50;;
3016;SDS011;1518;52.408;13.060;2023-01-20T10:58:17;18.10;;;6.13;;
3016;SDS011;1518;52.408;13.060;2023-01-20T11:01:12;24.73;;;6.43;;
3016;SDS011;1518;52.408;13.060;2023-01-20T11:04:04;23.02;;;6.05;;
3016;SDS011;1518;52.408;13.060;2023-01-20T11:06:53;20.38;;;6.55;;
3016;SDS011;1518;52.408;13.060;2023-01-20T11:09:44;23.05;;;6.00;;
3016;SDS011;1518;52.408;13.060;2023-01-20T11:12:34;21.35;;;7.38;;
3016;SDS011;1518;52.408;13.060;2023-01-20T11:15:26;16.58;;;6.13;;
3016;SDS011;1518;52.408;13.060;2023-01-20T11:18:20;18.80;;;6.68;;
3016;SDS011;1518;52.408;13.060;2023-01-20T11:21:11;12.02;;;5.82;;
3016;SDS011;1518;52.408;13.060;2023-01-20T11:24:00;39.40;;;8.50;;
3016;SDS011;1518;52.408;13.060;2023-01-20T11:26:48;27.77;;;7.25;;
3016;SDS011;1518;52.408;13.060;2023-01-20T11:29:38;55.28;;;12.00;;
3016;SDS011;1518;52.408;13.060;2023-01-20T11:32:30;64.25;;;10.73;;
3016;SDS011;1518;52.408;13.060;2023-01-20T11:35:22;60.28;;;9.25;;
3016;SDS011;1518;52.408;13.060;2023-01-20T11:38:22;35.60;;;8.43;;
3016;SDS011;1518;52.408;13.060;2023-01-20T11:41:16;28.27;;;6.90;;
3016;SDS011;1518;52.408;13.060;2023-01-20T11:44:05;34.08;;;6.28;;
3016;SDS011;1518;52.408;13.060;2023-01-20T11:46:53;20.83;;;6.63;;
3016;SDS011;1518;52.408;13.060;2023-01-20T11:49:43;20.00;;;7.10;;
3016;SDS011;1518;52.408;13.060;2023-01-20T11:52:33;23.58;;;7.38;;
3016;SDS011;1518;52.408;13.060;2023-01-20T11:55:23;35.25;;;7.93;;
3016;SDS011;1518;52.408;13.060;2023-01-20T11:58:15;30.02;;;7.30;;
3016;SDS011;1518;52.408;13.060;2023-01-20T12:01:05;32.67;;;6.85;;
3016;SDS011;1518;52.408;13.060;2023-01-20T12:04:02;22.45;;;8.15;;
3016;SDS011;1518;52.408;13.060;2023-01-20T12:07:09;19.75;;;7.28;;
3016;SDS011;1518;52.408;13.060;2023-01-20T12:10:02;27.27;;;6.65;;
3016;SDS011;1518;52.408;13.060;2023-01-20T12:13:00;20.13;;;6.85;;
3016;SDS011;1518;52.408;13.060;2023-01-20T12:15:52;14.50;;;5.95;;
3016;SDS011;1518;52.408;13.060;2023-01-20T12:18:43;20.45;;;7.07;;
3016;SDS011;1518;52.408;13.060;2023-01-20T12:21:49;18.30;;;6.35;;
3016;SDS011;1518;52.408;13.060;2023-01-20T12:24:40;10.32;;;5.97;;
3016;SDS011;1518;52.408;13.060;2023-01-20T12:27:57;21.85;;;6.90;;
3016;SDS011;1518;52.408;13.060;2023-01-20T12:30:51;30.08;;;6.72;;
3016;SDS011;1518;52.408;13.060;2023-01-20T12:33:43;13.15;;;6.05;;
3016;SDS011;1518;52.408;13.060;2023-01-20T12:39:51;22.08;;;6.35;;
3016;SDS011;1518;52.408;13.060;2023-01-20T12:43:11;15.07;;;5.60;;
3016;SDS011;1518;52.408;13.060;2023-01-20T12:46:18;27.60;;;6.78;;
3016;SDS011;1518;52.408;13.060;2023-01-20T12:49:20;20.08;;;6.10;;
3016;SDS011;1518;52.408;13.060;2023-01-20T12:52:25;17.67;;;6.30;;
3016;SDS011;1518;52.408;13.060;2023-01-20T12:55:28;20.05;;;6.47;;
3016;SDS011;1518;52.408;13.060;2023-01-20T12:58:32;21.00;;;6.05;;
3016;SDS011;1518;52.408;13.060;2023-01-20T13:01:33;18.55;;;6.10;;
3016;SDS011;1518;52.408;13.060;2023-01-20T13:04:31;17.65;;;5.85;;
3016;SDS011;1518;52.408;13.060;2023-01-20T13:07:47;20.73;;;7.03;;
3016;SDS011;1518;52.408;13.060;2023-01-20T13:10:50;20.38;;;6.78;;
3016;SDS011;1518;52.408;13.060;2023-01-20T13:13:52;18.02;;;6.72;;
3016;SDS011;1518;52.408;13.060;2023-01-20T13:16:49;11.82;;;6.22;;
3016;SDS011;1518;52.408;13.060;2023-01-20T13:19:46;17.77;;;5.57;;
3016;SDS011;1518;52.408;13.060;2023-01-20T13:22:37;12.10;;;6.05;;
3016;SDS011;1518;52.408;13.060;2023-01-20T13:25:26;24.80;;;6.15;;
3016;SDS011;1518;52.408;13.060;2023-01-20T13:28:15;17.33;;;6.32;;
3016;SDS011;1518;52.408;13.060;2023-01-20T13:34:32;21.40;;;6.60;;
3016;SDS011;1518;52.408;13.060;2023-01-20T13:37:23;17.58;;;6.45;;
3016;SDS011;1518;52.408;13.060;2023-01-20T13:46:47;22.23;;;7.05;;
3016;SDS011;1518;52.408;13.060;2023-01-20T13:49:48;14.93;;;6.88;;
3016;SDS011;1518;52.408;13.060;2023-01-20T13:56:01;17.17;;;6.82;;
3016;SDS011;1518;52.408;13.060;2023-01-20T13:58:49;20.27;;;6.13;;
3016;SDS011;1518;52.408;13.060;2023-01-20T14:01:38;19.75;;;6.22;;
3016;SDS011;1518;52.408;13.060;2023-01-20T14:04:27;15.32;;;5.78;;
3016;SDS011;1518;52.408;13.060;2023-01-20T14:07:24;18.55;;;6.78;;
3016;SDS011;1518;52.408;13.060;2023-01-20T14:10:15;22.80;;;6.78;;
3016;SDS011;1518;52.408;13.060;2023-01-20T14:13:07;11.20;;;6.10;;
3016;SDS011;1518;52.408;13.060;2023-01-20T14:15:55;13.93;;;5.22;;
3016;SDS011;1518;52.408;13.060;2023-01-20T14:18:44;12.50;;;5.25;;
3016;SDS011;1518;52.408;13.060;2023-01-20T14:21:39;15.18;;;5.80;;
3016;SDS011;1518;52.408;13.060;2023-01-20T14:24:28;16.33;;;5.15;;
3016;SDS011;1518;52.408;13.060;2023-01-20T14:27:19;9.38;;;5.10;;
3016;SDS011;1518;52.408;13.060;2023-01-20T14:30:12;13.23;;;5.15;;
3016;SDS011;1518;52.408;13.060;2023-01-20T14:33:03;12.48;;;6.07;;
3016;SDS011;1518;52.408;13.060;2023-01-20T14:35:54;14.07;;;6.00;;
3016;SDS011;1518;52.408;13.060;2023-01-20T14:38:47;11.73;;;5.53;;
3016;SDS011;1518;52.408;13.060;2023-01-20T14:41:44;14.27;;;5.60;;
3016;SDS011;1518;52.408;13.060;2023-01-20T14:44:34;14.30;;;5.47;;
3016;SDS011;1518;52.408;13.060;2023-01-20T14:47:23;15.32;;;5.55;;
3016;SDS011;1518;52.408;13.060;2023-01-20T14:50:12;15.25;;;6.07;;
3016;SDS011;1518;52.408;13.060;2023-01-20T14:53:01;9.32;;;4.82;;
3016;SDS011;1518;52.408;13.060;2023-01-20T14:55:56;18.35;;;5.57;;
3016;SDS011;1518;52.408;13.060;2023-01-20T14:58:47;19.95;;;5.88;;
3016;SDS011;1518;52.408;13.060;2023-01-20T15:01:39;12.93;;;5.50;;
3016;SDS011;1518;52.408;13.060;2023-01-20T15:04:33;10.52;;;6.10;;
3016;SDS011;1518;52.408;13.060;2023-01-20T15:07:21;15.30;;;5.97;;
3016;SDS011;1518;52.408;13.060;2023-01-20T15:10:12;15.30;;;6.30;;
3016;SDS011;1518;52.408;13.060;2023-01-20T15:13:17;13.15;;;5.88;;
3016;SDS011;1518;52.408;13.060;2023-01-20T15:16:14;11.98;;;5.00;;
3016;SDS011;1518;52.408;13.060;2023-01-20T15:22:31;11.07;;;5.78;;
3016;SDS011;1518;52.408;13.060;2023-01-20T15:25:19;8.55;;;5.20;;
3016;SDS011;1518;52.408;13.060;2023-01-20T15:28:17;9.30;;;5.13;;
3016;SDS011;1518;52.408;13.060;2023-01-20T15:31:11;12.35;;;6.13;;
3016;SDS011;1518;52.408;13.060;2023-01-20T15:34:00;9.25;;;5.13;;
3016;SDS011;1518;52.408;13.060;2023-01-20T15:36:49;14.95;;;6.40;;
3016;SDS011;1518;52.408;13.060;2023-01-20T15:39:38;11.95;;;5.57;;
3016;SDS011;1518;52.408;13.060;2023-01-20T15:42:26;12.13;;;5.65;;
3016;SDS011;1518;52.408;13.060;2023-01-20T15:45:16;10.05;;;5.10;;
3016;SDS011;1518;52.408;13.060;2023-01-20T15:48:06;13.23;;;5.10;;
3016;SDS011;1518;52.408;13.060;2023-01-20T15:50:59;7.88;;;4.93;;
3016;SDS011;1518;52.408;13.060;2023-01-20T15:53:47;8.52;;;5.07;;
3016;SDS011;1518;52.408;13.060;2023-01-20T15:56:36;14.50;;;5.05;;
3016;SDS011;1518;52.408;13.060;2023-01-20T15:59:26;10.32;;;5.00;;
3016;SDS011;1518;52.408;13.060;2023-01-20T16:02:17;9.60;;;5.72;;
3016;SDS011;1518;52.408;13.060;2023-01-20T16:05:07;10.82;;;5.72;;
3016;SDS011;1518;52.408;13.060;2023-01-20T16:08:00;9.57;;;4.60;;
3016;SDS011;1518;52.408;13.060;2023-01-20T16:10:49;10.23;;;5.40;;
3016;SDS011;1518;52.408;13.060;2023-01-20T16:13:37;13.65;;;4.88;;
3016;SDS011;1518;52.408;13.060;2023-01-20T16:16:27;7.97;;;5.78;;
3016;SDS011;1518;52.408;13.060;2023-01-20T16:19:17;9.25;;;4.68;;
3016;SDS011;1518;52.408;13.060;2023-01-20T16:22:05;9.27;;;5.43;;
3016;SDS011;1518;52.408;13.060;2023-01-20T16:24:54;7.53;;;5.05;;
3016;SDS011;1518;52.408;13.060;2023-01-20T16:27:42;11.63;;;5.30;;
3016;SDS011;1518;52.408;13.060;2023-01-20T16:30:31;12.02;;;5.47;;
3016;SDS011;1518;52.408;13.060;2023-01-20T16:33:20;9.90;;;5.43;;
3016;SDS011;1518;52.408;13.060;2023-01-20T16:36:11;7.03;;;5.30;;
3016;SDS011;1518;52.408;13.060;2023-01-20T16:39:00;10.27;;;5.72;;
3016;SDS011;1518;52.408;13.060;2023-01-20T16:41:49;10.20;;;5.10;;
3016;SDS011;1518;52.408;13.060;2023-01-20T16:44:37;11.27;;;5.25;;
3016;SDS011;1518;52.408;13.060;2023-01-20T16:47:25;10.25;;;4.28;;
3016;SDS011;1518;52.408;13.060;2023-01-20T16:50:13;10.18;;;6.18;;
3016;SDS011;1518;52.408;13.060;2023-01-20T16:53:04;8.57;;;5.47;;
3016;SDS011;1518;52.408;13.060;2023-01-20T16:55:52;8.90;;;4.88;;
3016;SDS011;1518;52.408;13.060;2023-01-20T16:58:40;6.60;;;4.82;;
3016;SDS011;1518;52.408;13.060;2023-01-20T17:01:28;10.68;;;5.45;;
3016;SDS011;1518;52.408;13.060;2023-01-20T17:04:17;8.55;;;5.63;;
3016;SDS011;1518;52.408;13.060;2023-01-20T17:07:05;8.80;;;5.05;;
3016;SDS011;1518;52.408;13.060;2023-01-20T17:09:55;6.60;;;4.40;;
3016;SDS011;1518;52.408;13.060;2023-01-20T17:12:43;9.68;;;5.82;;
3016;SDS011;1518;52.408;13.060;2023-01-20T17:15:34;10.07;;;5.30;;
3016;SDS011;1518;52.408;13.060;2023-01-20T17:18:25;7.80;;;5.45;;
3016;SDS011;1518;52.408;13.060;2023-01-20T17:21:13;9.35;;;5.82;;
3016;SDS011;1518;52.408;13.060;2023-01-20T17:24:02;11.40;;;6.25;;
3016;SDS011;1518;52.408;13.060;2023-01-20T17:26:52;7.10;;;5.53;;
3016;SDS011;1518;52.408;13.060;2023-01-20T17:29:40;7.55;;;5.38;;
3016;SDS011;1518;52.408;13.060;2023-01-20T17:32:28;7.35;;;5.13;;
3016;SDS011;1518;52.408;13.060;2023-01-20T17:35:17;7.78;;;4.88;;
3016;SDS011;1518;52.408;13.060;2023-01-20T17:38:05;11.57;;;6.18;;
3016;SDS011;1518;52.408;13.060;2023-01-20T17:40:53;12.98;;;5.82;;
3016;SDS011;1518;52.408;13.060;2023-01-20T17:43:43;8.40;;;5.93;;
3016;SDS011;1518;52.408;13.060;2023-01-20T17:46:32;9.27;;;5.20;;
3016;SDS011;1518;52.408;13.060;2023-01-20T17:49:20;8.32;;;5.78;;